Anderson, Pennsylvania
Current Conditions -  °F | °C
As of 1:55 AM on Sunday 26 Oct 2014 (Local Time) from KUNV Reporting Station
Clear Clear  
Wind Chill: 56°   Ceiling: Unl
Heat Index: 56°   Visibility: 10mi
Dew Point: 36°   Wind: 14mph
Humidity: 46%   Direction: 300°WNW
Pressure: 29.69"   Gusts: 28mph
Location:  40.544°N, 77.6033°W
Report Text: KUNV 260555Z AUTO 30012G24KT 10SM CLR 14/02 A2969 RMK AO2 T01350020 10165 20135
Loading
Personal Weather Stations






























Interactive Weather Map New forecast layout! Learn more

10-Day Weather Forecast

Advertisements
Track Severe Weather on mobile